Time,TemperatureF,DewpointF,PressureIn,WindDirection,WindDirectionDegrees,WindSpeedMPH,WindSpeedGustMPH,Humidity,HourlyPrecipIn,Conditions,Clouds,dailyrainin,SoftwareType,DateUTC
2013-01-10 00:02:00,38.1,15.9,32.08,NW,315,6.9,6.9,40,0.00,CLR,SKC,0.00,WeatherDisplay:10.37,2013-01-10 07:02:00,
2013-01-10 00:07:00,37.8,15.6,32.08,NW,315,6.9,6.9,40,0.00,CLR,SKC,0.00,WeatherDisplay:10.37,2013-01-10 07:07:00,
2013-01-10 00:12:00,37.4,15.8,31.89,NW,315,3.5,3.8,41,0.00,CLR,SKC,0.00,WeatherDisplay:10.37,2013-01-10 07:12:00,
2013-01-10 00:17:00,37.2,15.6,32.08,NNW,338,2.3,2.3,41,0.00,CLR,SKC,0.00,WeatherDisplay:10.37,2013-01-10 07:17:00,
2013-01-10 00:22:00,37.0,16.0,32.08,NNW,338,0.0,0.2,42,0.00,CLR,SKC,0.00,WeatherDisplay:10.37,2013-01-10 07:22:00,
2013-01-10 00:27:00,36.7,15.7,32.08,NNW,338,2.3,2.3,42,0.00,CLR,SKC,0.00,WeatherDisplay:10.37,2013-01-10 07:27:00,
2013-01-10 00:32:00,36.3,15.4,31.89,NNW,338,4.2,4.2,42,0.00,CLR,SKC,0.00,WeatherDisplay:10.37,2013-01-10 07:32:00,
2013-01-10 00:37:00,36.1,15.2,32.08,NW,315,4.6,4.6,42,0.00,CLR,SKC,0.00,WeatherDisplay:10.37,2013-01-10 07:37:00,
2013-01-10 00:42:00,35.8,15.4,32.08,NW,315,2.3,2.3,43,0.00,CLR,SKC,0.00,WeatherDisplay:10.37,2013-01-10 07:42:00,
2013-01-10 00:47:00,35.4,15.1,32.08,NNW,338,1.2,1.2,43,0.00,CLR,SKC,0.00,WeatherDisplay:10.37,2013-01-10 07:47:00,
2013-01-10 00:52:00,35.4,15.1,32.09,NNW,338,3.5,3.5,43,0.00,CLR,SKC,0.00,WeatherDisplay:10.37,2013-01-10 07:52:00,
2013-01-10 00:57:00,35.2,15.5,31.89,NNW,338,6.9,6.9,44,0.00,CLR,SKC,0.00,WeatherDisplay:10.37,2013-01-10 07:57:00,
2013-01-10 01:02:00,35.2,15.5,32.09,NW,315,0.0,0.0,44,0.00,CLR,SKC,0.00,WeatherDisplay:10.37,2013-01-10 08:02:00,
2013-01-10 01:07:00,35.2,15.5,32.09,NW,315,3.5,3.5,44,0.00,CLR,SKC,0.00,WeatherDisplay:10.37,2013-01-10 08:07:00,
2013-01-10 01:12:00,35.1,15.3,32.09,NW,315,0.0,0.0,44,0.00,CLR,SKC,0.00,WeatherDisplay:10.37,2013-01-10 08:12:00,
2013-01-10 01:17:00,34.9,15.1,31.89,NW,315,0.0,0.0,44,0.00,CLR,SKC,0.00,WeatherDisplay:10.37,2013-01-10 08:17:00,
2013-01-10 01:22:00,34.5,14.3,32.09,NW,315,0.0,0.0,43,0.00,CLR,SKC,0.00,WeatherDisplay:10.37,2013-01-10 08:22:00,
2013-01-10 01:27:00,34.3,14.7,32.08,NW,315,0.0,0.0,44,0.00,CLR,SKC,0.00,WeatherDisplay:10.37,2013-01-10 08:27:00,
2013-01-10 01:32:00,34.0,14.3,32.08,NNW,338,0.0,0.0,44,0.00,CLR,SKC,0.00,WeatherDisplay:10.37,2013-01-10 08:32:00,
2013-01-10 01:37:00,33.8,14.7,31.89,NNW,338,4.6,4.6,45,0.00,CLR,SKC,0.00,WeatherDisplay:10.37,2013-01-10 08:37:00,
2013-01-10 01:42:00,34.0,14.8,32.08,NNW,338,0.0,0.0,45,0.00,CLR,SKC,0.00,WeatherDisplay:10.37,2013-01-10 08:42:00,
2013-01-10 01:47:00,33.8,14.7,32.08,NNW,338,4.6,4.6,45,0.00,CLR,SKC,0.00,WeatherDisplay:10.37,2013-01-10 08:47:00,
2013-01-10 01:52:00,33.4,13.8,31.89,NW,315,1.2,0.0,44,0.00,CLR,SKC,0.00,WeatherDisplay:10.37,2013-01-10 08:52:00,
2013-01-10 01:57:00,32.7,13.2,31.89,NW,315,0.0,0.0,44,0.00,CLR,SKC,0.00,WeatherDisplay:10.37,2013-01-10 08:57:00,
2013-01-10 02:02:00,31.8,12.9,32.08,NW,315,0.0,0.0,45,0.00,CLR,SKC,0.00,WeatherDisplay:10.37,2013-01-10 09:02:00,
2013-01-10 02:07:00,31.5,12.5,32.08,NW,315,0.0,0.0,45,0.00,CLR,SKC,0.00,WeatherDisplay:10.37,2013-01-10 09:07:00,
2013-01-10 02:12:00,31.3,13.4,32.08,WNW,292,0.0,0.0,47,0.00,CLR,SKC,0.00,WeatherDisplay:10.37,2013-01-10 09:12:00,
2013-01-10 02:17:00,31.6,13.7,31.89,WNW,292,0.0,0.0,47,0.00,CLR,SKC,0.00,WeatherDisplay:10.37,2013-01-10 09:17:00,
2013-01-10 02:22:00,31.6,13.7,32.07,WNW,292,0.0,0.0,47,0.00,CLR,SKC,0.00,WeatherDisplay:10.37,2013-01-10 09:22:00,
2013-01-10 02:27:00,31.5,13.5,32.07,WNW,292,3.5,3.5,47,0.00,CLR,SKC,0.00,WeatherDisplay:10.37,2013-01-10 09:27:00,
2013-01-10 02:32:00,31.5,14.0,32.07,WNW,292,8.1,8.1,48,0.00,CLR,SKC,0.00,WeatherDisplay:10.37,2013-01-10 09:32:00,
2013-01-10 02:37:00,31.8,15.3,32.06,WNW,292,11.5,11.5,50,0.00,CLR,SKC,0.00,WeatherDisplay:10.37,2013-01-10 09:37:00,
2013-01-10 02:42:00,32.2,15.6,32.06,WNW,292,5.4,5.4,50,0.00,CLR,SKC,0.00,WeatherDisplay:10.37,2013-01-10 09:42:00,
2013-01-10 02:47:00,32.5,15.5,32.06,WNW,292,7.4,7.4,49,0.00,CLR,SKC,0.00,WeatherDisplay:10.37,2013-01-10 09:47:00,
2013-01-10 02:52:00,32.7,15.6,32.06,West,270,6.9,6.9,49,0.00,CLR,SKC,0.00,WeatherDisplay:10.37,2013-01-10 09:52:00,
2013-01-10 02:57:00,32.7,16.1,32.06,West,270,9.2,9.2,50,0.00,CLR,SKC,0.00,WeatherDisplay:10.37,2013-01-10 09:57:00,
2013-01-10 03:02:00,32.7,15.6,32.06,West,270,5.8,5.8,49,0.00,CLR,SKC,0.00,WeatherDisplay:10.37,2013-01-10 10:02:00,
2013-01-10 03:07:00,32.7,15.6,32.06,West,270,1.3,2.8,49,0.00,CLR,SKC,0.00,WeatherDisplay:10.37,2013-01-10 10:07:00,
2013-01-10 03:12:00,32.7,15.6,31.89,WNW,292,3.5,3.5,49,0.00,CLR,SKC,0.00,WeatherDisplay:10.37,2013-01-10 10:12:00,
2013-01-10 03:17:00,32.7,15.6,31.89,West,270,6.9,6.9,49,0.00,CLR,SKC,0.00,WeatherDisplay:10.37,2013-01-10 10:17:00,
2013-01-10 03:22:00,32.7,15.6,32.05,West,270,6.9,6.9,49,0.00,CLR,SKC,0.00,WeatherDisplay:10.37,2013-01-10 10:22:00,
2013-01-10 03:27:00,32.7,15.6,32.05,West,270,3.5,3.5,49,0.00,CLR,SKC,0.00,WeatherDisplay:10.37,2013-01-10 10:27:00,
2013-01-10 03:32:00,32.5,15.5,32.05,West,270,5.8,5.8,49,0.00,CLR,SKC,0.00,WeatherDisplay:10.37,2013-01-10 10:32:00,
2013-01-10 03:37:00,32.5,15.5,32.05,West,270,5.8,5.8,49,0.00,CLR,SKC,0.00,WeatherDisplay:10.37,2013-01-10 10:37:00,
2013-01-10 03:42:00,32.5,15.9,32.05,WNW,292,1.2,1.4,50,0.00,CLR,SKC,0.00,WeatherDisplay:10.37,2013-01-10 10:42:00,
2013-01-10 03:47:00,32.5,15.9,32.05,WNW,292,8.1,8.1,50,0.00,CLR,SKC,0.00,WeatherDisplay:10.37,2013-01-10 10:47:00,
2013-01-10 03:52:00,32.5,15.9,32.04,WNW,292,6.9,6.9,50,0.00,CLR,SKC,0.00,WeatherDisplay:10.37,2013-01-10 10:52:00,
2013-01-10 03:57:00,32.5,15.9,31.89,WNW,292,2.3,2.3,50,0.00,CLR,SKC,0.00,WeatherDisplay:10.37,2013-01-10 10:57:00,
2013-01-10 04:02:00,32.5,15.9,32.04,WNW,292,6.9,6.9,50,0.00,CLR,SKC,0.00,WeatherDisplay:10.37,2013-01-10 11:02:00,
2013-01-10 04:07:00,32.5,15.9,32.04,WNW,292,2.3,2.3,50,0.00,CLR,SKC,0.00,WeatherDisplay:10.37,2013-01-10 11:07:00,
2013-01-10 04:12:00,32.5,15.9,32.04,West,270,0.0,0.4,50,0.00,CLR,SKC,0.00,WeatherDisplay:10.37,2013-01-10 11:12:00,
2013-01-10 04:17:00,32.7,16.1,31.89,WNW,292,5.8,5.8,50,0.00,CLR,SKC,0.00,WeatherDisplay:10.37,2013-01-10 11:17:00,
2013-01-10 04:22:00,32.7,16.6,32.03,WNW,292,4.6,4.6,51,0.00,CLR,SKC,0.00,WeatherDisplay:10.37,2013-01-10 11:22:00,
2013-01-10 04:27:00,32.7,16.1,32.03,NW,315,5.8,5.8,50,0.00,CLR,SKC,0.00,WeatherDisplay:10.37,2013-01-10 11:27:00,
2013-01-10 04:32:00,32.5,16.4,32.03,WNW,292,8.1,8.1,51,0.00,CLR,SKC,0.00,WeatherDisplay:10.37,2013-01-10 11:32:00,
2013-01-10 04:37:00,32.4,16.7,32.03,NW,315,6.9,6.9,52,0.00,CLR,SKC,0.00,WeatherDisplay:10.37,2013-01-10 11:37:00,
2013-01-10 04:42:00,32.4,16.7,32.03,WNW,292,1.2,0.0,52,0.00,CLR,SKC,0.00,WeatherDisplay:10.37,2013-01-10 11:42:00,
2013-01-10 04:47:00,32.4,16.7,32.03,WNW,292,0.0,0.0,52,0.00,CLR,SKC,0.00,WeatherDisplay:10.37,2013-01-10 11:47:00,
2013-01-10 04:52:00,32.4,16.7,32.03,WNW,292,0.0,0.0,52,0.00,CLR,SKC,0.00,WeatherDisplay:10.37,2013-01-10 11:52:00,
2013-01-10 04:57:00,32.4,17.1,31.89,West,270,0.0,0.6,53,0.00,CLR,SKC,0.00,WeatherDisplay:10.37,2013-01-10 11:57:00,
2013-01-10 05:02:00,32.5,17.3,32.03,WNW,292,9.2,9.2,53,0.00,CLR,SKC,0.00,WeatherDisplay:10.37,2013-01-10 12:02:00,
2013-01-10 05:07:00,32.7,17.9,32.03,WNW,292,9.2,9.2,54,0.00,CLR,SKC,0.00,WeatherDisplay:10.37,2013-01-10 12:07:00,
2013-01-10 05:12:00,32.9,18.1,32.03,WNW,292,6.9,6.9,54,0.00,CLR,SKC,0.00,WeatherDisplay:10.37,2013-01-10 12:12:00,
2013-01-10 05:17:00,33.1,18.2,32.02,WNW,292,8.1,8.1,54,0.00,CLR,SKC,0.00,WeatherDisplay:10.37,2013-01-10 12:17:00,
2013-01-10 05:22:00,33.4,18.6,31.89,NW,315,9.2,9.7,54,0.00,CLR,SKC,0.00,WeatherDisplay:10.37,2013-01-10 12:22:00,
2013-01-10 05:27:00,33.6,18.7,32.03,NNW,338,6.9,6.9,54,0.00,CLR,SKC,0.00,WeatherDisplay:10.37,2013-01-10 12:27:00,
2013-01-10 05:32:00,33.6,18.7,32.03,NW,315,1.2,0.0,54,0.00,CLR,SKC,0.00,WeatherDisplay:10.37,2013-01-10 12:32:00,
2013-01-10 05:37:00,33.1,17.8,31.89,NW,315,0.0,0.0,53,0.00,CLR,SKC,0.00,WeatherDisplay:10.37,2013-01-10 12:37:00,
2013-01-10 05:42:00,32.7,17.5,31.89,NW,315,0.0,0.0,53,0.00,CLR,SKC,0.00,WeatherDisplay:10.37,2013-01-10 12:42:00,
2013-01-10 05:47:00,32.4,17.1,32.04,NW,315,0.0,0.0,53,0.00,CLR,SKC,0.00,WeatherDisplay:10.37,2013-01-10 12:47:00,
2013-01-10 05:52:00,31.8,16.6,32.03,NNW,338,2.3,0.0,53,0.00,CLR,SKC,0.00,WeatherDisplay:10.37,2013-01-10 12:52:00,
2013-01-10 05:57:00,31.6,16.4,32.04,NNW,338,6.9,6.9,53,0.00,CLR,SKC,0.00,WeatherDisplay:10.37,2013-01-10 12:57:00,
2013-01-10 06:02:00,30.9,16.2,31.89,NW,315,5.8,6.0,54,0.00,CLR,SKC,0.00,WeatherDisplay:10.37,2013-01-10 13:02:00,
2013-01-10 06:07:00,30.6,16.3,32.04,WNW,292,5.8,5.8,55,0.00,CLR,SKC,0.00,WeatherDisplay:10.37,2013-01-10 13:07:00,
2013-01-10 06:12:00,30.0,15.8,32.04,West,270,4.9,4.9,55,0.00,CLR,SKC,0.00,WeatherDisplay:10.37,2013-01-10 13:12:00,
2013-01-10 06:17:00,30.0,16.2,31.89,West,270,0.0,0.0,56,0.00,CLR,SKC,0.00,WeatherDisplay:10.37,2013-01-10 13:17:00,
2013-01-10 06:22:00,30.0,16.2,31.89,West,270,0.0,0.0,56,0.00,CLR,SKC,0.00,WeatherDisplay:10.37,2013-01-10 13:22:00,
2013-01-10 06:27:00,30.0,16.2,32.03,West,270,0.0,0.0,56,0.00,CLR,SKC,0.00,WeatherDisplay:10.37,2013-01-10 13:27:00,
2013-01-10 06:32:00,30.0,16.2,32.04,West,270,0.0,0.0,56,0.00,CLR,SKC,0.00,WeatherDisplay:10.37,2013-01-10 13:32:00,
2013-01-10 06:37:00,30.0,16.2,31.89,West,270,0.0,0.0,56,0.00,CLR,SKC,0.00,WeatherDisplay:10.37,2013-01-10 13:37:00,
2013-01-10 06:42:00,30.0,16.2,31.89,West,270,0.0,0.0,56,0.00,CLR,SKC,0.00,WeatherDisplay:10.37,2013-01-10 13:42:00,
2013-01-10 06:47:00,30.0,16.6,32.05,West,270,6.9,6.9,57,0.00,CLR,SKC,0.00,WeatherDisplay:10.37,2013-01-10 13:47:00,
2013-01-10 06:52:00,30.0,16.6,32.05,NW,315,0.0,2.4,57,0.00,CLR,SKC,0.00,WeatherDisplay:10.37,2013-01-10 13:52:00,
2013-01-10 06:57:00,30.0,16.6,32.05,West,270,8.1,8.1,57,0.00,CLR,SKC,0.00,WeatherDisplay:10.37,2013-01-10 13:57:00,
2013-01-10 07:02:00,30.0,17.0,31.89,West,270,8.1,8.1,58,0.00,CLR,SKC,0.00,WeatherDisplay:10.37,2013-01-10 14:02:00,
2013-01-10 07:07:00,30.2,17.2,32.05,WNW,292,5.8,0.0,58,0.00,CLR,SKC,0.00,WeatherDisplay:10.37,2013-01-10 14:07:00,
2013-01-10 07:12:00,30.0,16.6,31.89,WNW,292,0.0,0.8,57,0.00,CLR,SKC,0.00,WeatherDisplay:10.37,2013-01-10 14:12:00,
2013-01-10 07:17:00,29.8,16.4,31.89,NNW,338,8.1,8.1,57,0.00,CLR,SKC,0.00,WeatherDisplay:10.37,2013-01-10 14:17:00,
2013-01-10 07:22:00,29.5,16.1,32.05,North,0,5.1,5.1,57,0.00,CLR,SKC,0.00,WeatherDisplay:10.37,2013-01-10 14:22:00,
2013-01-10 07:27:00,29.3,16.7,32.05,NW,315,9.2,9.2,59,0.00,CLR,SKC,0.00,WeatherDisplay:10.37,2013-01-10 14:27:00,
2013-01-10 07:32:00,29.3,16.7,32.05,NNW,338,10.4,10.4,59,0.00,CLR,SKC,0.00,WeatherDisplay:10.37,2013-01-10 14:32:00,
2013-01-10 07:37:00,29.5,16.9,32.05,NNW,338,9.2,9.2,59,0.00,CLR,SKC,0.00,WeatherDisplay:10.37,2013-01-10 14:37:00,
2013-01-10 07:42:00,29.5,16.9,32.05,NW,315,6.9,6.9,59,0.00,CLR,SKC,0.00,WeatherDisplay:10.37,2013-01-10 14:42:00,
2013-01-10 07:47:00,29.8,17.6,32.05,NW,315,5.8,5.8,60,0.00,CLR,SKC,0.00,WeatherDisplay:10.37,2013-01-10 14:47:00,
2013-01-10 07:52:00,30.2,18.0,32.05,NW,315,10.4,10.4,60,0.00,CLR,SKC,0.00,WeatherDisplay:10.37,2013-01-10 14:52:00,
2013-01-10 07:57:00,31.3,19.4,32.06,West,270,12.7,12.7,61,0.00,CLR,SKC,0.00,WeatherDisplay:10.37,2013-01-10 14:57:00,
2013-01-10 08:02:00,32.2,19.4,31.89,WNW,292,2.3,2.3,59,0.00,CLR,SKC,0.00,WeatherDisplay:10.37,2013-01-10 15:02:00,
2013-01-10 08:07:00,32.7,19.6,32.06,NW,315,3.5,0.0,58,0.00,CLR,SKC,0.00,WeatherDisplay:10.37,2013-01-10 15:07:00,
2013-01-10 08:12:00,33.6,20.4,32.06,WNW,292,8.1,8.1,58,0.00,CLR,SKC,0.00,WeatherDisplay:10.37,2013-01-10 15:12:00,
2013-01-10 08:17:00,34.3,20.7,32.05,NW,315,2.3,3.4,57,0.00,CLR,SKC,0.00,WeatherDisplay:10.37,2013-01-10 15:17:00,
2013-01-10 08:22:00,35.4,21.3,31.89,WNW,292,0.0,0.0,56,0.00,CLR,SKC,0.00,WeatherDisplay:10.37,2013-01-10 15:22:00,
2013-01-10 08:27:00,36.0,21.3,31.89,WNW,292,3.5,3.5,55,0.00,CLR,SKC,0.00,WeatherDisplay:10.37,2013-01-10 15:27:00,
2013-01-10 08:32:00,36.5,21.4,32.06,WNW,292,0.0,0.0,54,0.00,CLR,SKC,0.00,WeatherDisplay:10.37,2013-01-10 15:32:00,
2013-01-10 08:37:00,36.9,21.7,32.06,WNW,292,0.0,0.0,54,0.00,CLR,SKC,0.00,WeatherDisplay:10.37,2013-01-10 15:37:00,
2013-01-10 08:42:00,37.2,21.6,32.06,WNW,292,0.0,0.0,53,0.00,CLR,SKC,0.00,WeatherDisplay:10.37,2013-01-10 15:42:00,
2013-01-10 08:47:00,37.2,21.2,31.89,WNW,292,0.0,0.0,52,0.00,CLR,SKC,0.00,WeatherDisplay:10.37,2013-01-10 15:47:00,
2013-01-10 08:52:00,37.4,21.4,32.06,WNW,292,0.0,0.0,52,0.00,CLR,SKC,0.00,WeatherDisplay:10.37,2013-01-10 15:52:00,
2013-01-10 08:57:00,37.6,21.5,32.06,WNW,292,3.5,3.5,52,0.00,CLR,SKC,0.00,WeatherDisplay:10.37,2013-01-10 15:57:00,
2013-01-10 09:02:00,37.6,21.5,31.89,West,270,6.9,0.0,52,0.00,CLR,SKC,0.00,WeatherDisplay:10.37,2013-01-10 16:02:00,
2013-01-10 09:07:00,37.8,21.7,32.06,WNW,292,7.8,7.8,52,0.00,CLR,SKC,0.00,WeatherDisplay:10.37,2013-01-10 16:07:00,
2013-01-10 09:12:00,37.8,21.2,32.06,WNW,292,0.0,0.0,51,0.00,CLR,SKC,0.00,WeatherDisplay:10.37,2013-01-10 16:12:00,
2013-01-10 09:17:00,37.9,21.4,31.89,WNW,292,4.6,4.6,51,0.00,CLR,SKC,0.00,WeatherDisplay:10.37,2013-01-10 16:17:00,
2013-01-10 09:22:00,37.9,21.4,32.05,West,270,5.8,5.8,51,0.00,CLR,SKC,0.00,WeatherDisplay:10.37,2013-01-10 16:22:00,
2013-01-10 09:27:00,37.9,21.4,31.89,West,270,8.1,8.1,51,0.00,CLR,SKC,0.00,WeatherDisplay:10.37,2013-01-10 16:27:00,
2013-01-10 09:32:00,38.3,21.7,32.05,West,270,1.2,1.2,51,0.00,CLR,SKC,0.00,WeatherDisplay:10.37,2013-01-10 16:32:00,
2013-01-10 09:37:00,38.5,21.9,32.05,WNW,292,8.5,8.5,51,0.00,CLR,SKC,0.00,WeatherDisplay:10.37,2013-01-10 16:37:00,
2013-01-10 09:42:00,38.8,21.8,32.05,NW,315,8.1,8.1,50,0.00,CLR,SKC,0.00,WeatherDisplay:10.37,2013-01-10 16:42:00,
2013-01-10 09:47:00,38.8,21.8,32.05,WNW,292,0.0,0.0,50,0.00,CLR,SKC,0.00,WeatherDisplay:10.37,2013-01-10 16:47:00,
2013-01-10 09:52:00,38.8,21.8,32.04,WNW,292,0.0,0.0,50,0.00,CLR,SKC,0.00,WeatherDisplay:10.37,2013-01-10 16:52:00,
2013-01-10 09:57:00,39.0,21.9,32.03,West,270,3.5,0.0,50,0.00,CLR,SKC,0.00,WeatherDisplay:10.37,2013-01-10 16:57:00,
2013-01-10 10:02:00,39.0,21.9,32.04,West,270,0.0,0.0,50,0.00,CLR,SKC,0.00,WeatherDisplay:10.37,2013-01-10 17:02:00,
2013-01-10 10:07:00,39.0,21.5,32.04,West,270,0.0,0.0,49,0.00,CLR,SKC,0.00,WeatherDisplay:10.37,2013-01-10 17:07:00,
2013-01-10 10:12:00,39.6,22.0,31.89,West,270,0.0,0.0,49,0.00,CLR,SKC,0.00,WeatherDisplay:10.37,2013-01-10 17:12:00,
2013-01-10 10:17:00,39.9,22.3,32.04,West,270,0.0,0.0,49,0.00,CLR,SKC,0.00,WeatherDisplay:10.37,2013-01-10 17:17:00,
2013-01-10 10:22:00,40.3,22.6,31.89,West,270,0.0,0.0,49,0.00,CLR,SKC,0.00,WeatherDisplay:10.37,2013-01-10 17:22:00,
2013-01-10 10:27:00,40.8,22.6,32.03,West,270,0.0,0.0,48,0.00,CLR,SKC,0.00,WeatherDisplay:10.37,2013-01-10 17:27:00,
2013-01-10 10:32:00,41.4,23.1,31.89,West,270,0.0,0.0,48,0.00,CLR,SKC,0.00,WeatherDisplay:10.37,2013-01-10 17:32:00,
2013-01-10 10:37:00,41.7,23.5,32.02,NW,315,0.0,0.0,48,0.00,CLR,SKC,0.00,WeatherDisplay:10.37,2013-01-10 17:37:00,
2013-01-10 10:42:00,42.3,23.9,32.02,NW,315,0.0,0.0,48,0.00,CLR,SKC,0.00,WeatherDisplay:10.37,2013-01-10 17:42:00,
2013-01-10 10:47:00,43.0,24.1,32.01,NW,315,0.0,0.0,47,0.00,CLR,SKC,0.00,WeatherDisplay:10.37,2013-01-10 17:47:00,
2013-01-10 10:52:00,43.3,24.4,31.89,NW,315,0.0,0.0,47,0.00,CLR,SKC,0.00,WeatherDisplay:10.37,2013-01-10 17:52:00,
2013-01-10 10:57:00,43.9,24.4,32.02,NW,315,0.0,0.0,46,0.00,CLR,SKC,0.00,WeatherDisplay:10.37,2013-01-10 17:57:00,
2013-01-10 11:02:00,44.8,25.2,32.02,NW,315,0.0,0.0,46,0.00,CLR,SKC,0.00,WeatherDisplay:10.37,2013-01-10 18:02:00,
2013-01-10 11:07:00,46.0,25.9,32.02,NW,315,0.0,0.0,45,0.00,CLR,SKC,0.00,WeatherDisplay:10.37,2013-01-10 18:07:00,
2013-01-10 11:12:00,47.7,26.8,31.89,NW,315,5.8,5.8,44,0.00,CLR,SKC,0.00,WeatherDisplay:10.37,2013-01-10 18:12:00,
2013-01-10 11:17:00,48.6,27.1,31.89,West,270,0.0,0.0,43,0.00,CLR,SKC,0.00,WeatherDisplay:10.37,2013-01-10 18:17:00,
2013-01-10 11:22:00,49.1,26.4,31.99,WNW,292,8.1,8.1,41,0.00,CLR,SKC,0.00,WeatherDisplay:10.37,2013-01-10 18:22:00,
2013-01-10 11:27:00,49.6,26.3,31.98,WNW,292,8.1,8.1,40,0.00,CLR,SKC,0.00,WeatherDisplay:10.37,2013-01-10 18:27:00,
2013-01-10 11:32:00,50.4,26.9,31.98,WNW,292,6.9,6.9,40,0.00,CLR,SKC,0.00,WeatherDisplay:10.37,2013-01-10 18:32:00,
2013-01-10 11:37:00,50.9,27.4,31.89,NW,315,9.2,9.2,40,0.00,CLR,SKC,0.00,WeatherDisplay:10.37,2013-01-10 18:37:00,
2013-01-10 11:42:00,52.3,27.5,31.97,NW,315,15.0,15.0,38,0.00,CLR,SKC,0.00,WeatherDisplay:10.37,2013-01-10 18:42:00,
2013-01-10 11:47:00,53.4,27.1,31.89,NW,315,20.7,20.7,36,0.00,CLR,SKC,0.00,WeatherDisplay:10.37,2013-01-10 18:47:00,
2013-01-10 11:52:00,55.0,27.1,31.96,NNW,338,16.1,16.1,34,0.00,CLR,SKC,0.00,WeatherDisplay:10.37,2013-01-10 18:52:00,
2013-01-10 11:57:00,55.9,27.9,31.96,NNW,338,12.7,12.7,34,0.00,CLR,SKC,0.00,WeatherDisplay:10.37,2013-01-10 18:57:00,
2013-01-10 12:02:00,56.5,27.7,31.96,NW,315,10.4,10.4,33,0.00,CLR,SKC,0.00,WeatherDisplay:10.37,2013-01-10 19:02:00,
2013-01-10 12:07:00,57.0,28.2,31.89,West,270,8.1,8.1,33,0.00,CLR,SKC,0.00,WeatherDisplay:10.37,2013-01-10 19:07:00,
2013-01-10 12:12:00,57.4,27.7,31.96,WNW,292,8.1,8.1,32,0.00,CLR,SKC,0.00,WeatherDisplay:10.37,2013-01-10 19:12:00,
2013-01-10 12:17:00,57.4,27.0,31.89,NW,315,11.5,11.5,31,0.00,CLR,SKC,0.00,WeatherDisplay:10.37,2013-01-10 19:17:00,
2013-01-10 12:22:00,57.9,26.6,31.94,WNW,292,17.3,17.3,30,0.00,CLR,SKC,0.00,WeatherDisplay:10.37,2013-01-10 19:22:00,
2013-01-10 12:27:00,58.1,26.8,31.89,NW,315,17.3,17.3,30,0.00,CLR,SKC,0.00,WeatherDisplay:10.37,2013-01-10 19:27:00,
2013-01-10 12:32:00,58.6,27.3,31.93,WSW,248,6.9,6.9,30,0.00,CLR,SKC,0.00,WeatherDisplay:10.37,2013-01-10 19:32:00,
2013-01-10 12:37:00,58.8,27.4,31.92,WNW,292,11.5,11.5,30,0.00,CLR,SKC,0.00,WeatherDisplay:10.37,2013-01-10 19:37:00,
2013-01-10 12:42:00,59.2,27.7,31.89,WNW,292,5.8,5.8,30,0.00,CLR,SKC,0.00,WeatherDisplay:10.37,2013-01-10 19:42:00,
2013-01-10 12:47:00,59.5,26.4,31.89,WNW,292,11.5,11.5,28,0.00,CLR,SKC,0.00,WeatherDisplay:10.37,2013-01-10 19:47:00,
2013-01-10 12:52:00,60.4,26.3,31.92,NW,315,16.1,16.1,27,0.00,CLR,SKC,0.00,WeatherDisplay:10.37,2013-01-10 19:52:00,
2013-01-10 12:57:00,61.3,26.1,31.91,NW,315,16.1,16.1,26,0.00,CLR,SKC,0.00,WeatherDisplay:10.37,2013-01-10 19:57:00,
2013-01-10 13:02:00,62.8,27.4,31.91,WNW,292,12.7,12.7,26,0.00,CLR,SKC,0.00,WeatherDisplay:10.37,2013-01-10 20:02:00,
2013-01-10 13:07:00,64.2,28.6,31.91,NW,315,16.1,16.1,26,0.00,CLR,SKC,0.00,WeatherDisplay:10.37,2013-01-10 20:07:00,
2013-01-10 13:12:00,64.8,27.1,31.91,NW,315,20.7,20.7,24,0.00,CLR,SKC,0.00,WeatherDisplay:10.37,2013-01-10 20:12:00,
2013-01-10 13:17:00,64.6,26.9,31.89,NNW,338,20.1,20.1,24,0.00,CLR,SKC,0.00,WeatherDisplay:10.37,2013-01-10 20:17:00,
2013-01-10 13:22:00,64.9,26.2,31.90,North,0,21.9,21.9,23,0.00,CLR,SKC,0.00,WeatherDisplay:10.37,2013-01-10 20:22:00,
2013-01-10 13:27:00,65.5,26.7,31.89,NNW,338,20.7,20.7,23,0.00,CLR,SKC,0.00,WeatherDisplay:10.37,2013-01-10 20:27:00,
2013-01-10 13:32:00,65.5,26.7,31.89,NNE,22,18.4,18.4,23,0.00,CLR,SKC,0.00,WeatherDisplay:10.37,2013-01-10 20:32:00,
2013-01-10 13:37:00,65.3,25.4,31.88,NNW,338,22.3,22.3,22,0.00,CLR,SKC,0.00,WeatherDisplay:10.37,2013-01-10 20:37:00,
2013-01-10 13:42:00,65.1,25.3,31.88,NNW,338,28.2,28.2,22,0.00,CLR,SKC,0.00,WeatherDisplay:10.37,2013-01-10 20:42:00,
2013-01-10 13:47:00,64.9,25.1,31.89,NNW,338,28.8,28.8,22,0.00,,SKC,0.00,WeatherDisplay:10.37,2013-01-10 20:47:00,
2013-01-10 13:52:00,64.6,24.8,31.89,North,0,25.3,25.3,22,0.00,,SKC,0.00,WeatherDisplay:10.37,2013-01-10 20:52:00,
2013-01-10 13:57:00,64.8,25.0,31.89,NE,45,29.9,29.9,22,0.00,CLR,SKC,0.00,WeatherDisplay:10.37,2013-01-10 20:57:00,
2013-01-10 14:02:00,64.8,25.0,31.89,NNE,22,20.7,20.7,22,0.00,CLR,SKC,0.00,WeatherDisplay:10.37,2013-01-10 21:02:00,
2013-01-10 14:07:00,64.8,25.0,31.89,NNE,22,24.2,24.2,22,0.00,CLR,SKC,0.00,WeatherDisplay:10.37,2013-01-10 21:07:00,
2013-01-10 14:12:00,64.6,24.8,31.89,NNE,22,21.9,21.9,22,0.00,CLR,SKC,0.00,WeatherDisplay:10.37,2013-01-10 21:12:00,
2013-01-10 14:17:00,64.6,24.8,31.90,NE,45,23.0,23.0,22,0.00,CLR,SKC,0.00,WeatherDisplay:10.37,2013-01-10 21:17:00,
2013-01-10 14:22:00,64.6,25.9,31.89,East,90,13.8,13.8,23,0.00,CLR,SKC,0.00,WeatherDisplay:10.37,2013-01-10 21:22:00,
2013-01-10 14:27:00,64.6,25.9,31.89,ENE,68,6.9,6.9,23,0.00,CLR,SKC,0.00,WeatherDisplay:10.37,2013-01-10 21:27:00,
2013-01-10 14:32:00,64.8,26.1,31.88,SE,135,4.6,0.0,23,0.00,CLR,SKC,0.00,WeatherDisplay:10.37,2013-01-10 21:32:00,
2013-01-10 14:37:00,65.1,26.4,31.88,ESE,112,0.0,0.0,23,0.00,CLR,SKC,0.00,WeatherDisplay:10.37,2013-01-10 21:37:00,
2013-01-10 14:42:00,65.5,26.7,31.89,NE,45,8.1,8.1,23,0.00,CLR,SKC,0.00,WeatherDisplay:10.37,2013-01-10 21:42:00,
2013-01-10 14:47:00,66.0,26.0,31.87,NNW,338,12.7,12.7,22,0.00,CLR,SKC,0.00,WeatherDisplay:10.37,2013-01-10 21:47:00,
2013-01-10 14:52:00,66.0,26.0,31.87,NNW,338,17.3,17.3,22,0.00,CLR,SKC,0.00,WeatherDisplay:10.37,2013-01-10 21:52:00,
2013-01-10 14:57:00,65.8,25.9,31.88,NNE,22,17.3,17.3,22,0.00,CLR,SKC,0.00,WeatherDisplay:10.37,2013-01-10 21:57:00,
2013-01-10 15:03:00,65.5,25.6,31.88,NE,45,16.1,16.1,22,0.00,CLR,SKC,0.00,WeatherDisplay:10.37,2013-01-10 22:03:00,
2013-01-10 15:08:00,65.1,25.3,31.89,NE,45,17.3,17.3,22,0.00,CLR,SKC,0.00,WeatherDisplay:10.37,2013-01-10 22:08:00,
2013-01-10 15:13:00,64.9,25.1,31.89,NE,45,17.3,17.3,22,0.00,CLR,SKC,0.00,WeatherDisplay:10.37,2013-01-10 22:13:00,
2013-01-10 15:18:00,64.6,24.8,31.89,NE,45,15.4,15.4,22,0.00,CLR,SKC,0.00,WeatherDisplay:10.37,2013-01-10 22:18:00,
2013-01-10 15:23:00,64.6,24.8,31.90,NE,45,17.3,17.3,22,0.00,CLR,SKC,0.00,WeatherDisplay:10.37,2013-01-10 22:23:00,
2013-01-10 15:28:00,64.2,23.4,31.89,North,0,21.9,21.9,21,0.00,CLR,SKC,0.00,WeatherDisplay:10.37,2013-01-10 22:28:00,
2013-01-10 15:33:00,64.2,23.4,31.90,NNE,22,17.4,17.4,21,0.00,CLR,SKC,0.00,WeatherDisplay:10.37,2013-01-10 22:33:00,
2013-01-10 15:38:00,64.2,23.4,31.90,North,0,13.8,13.8,21,0.00,CLR,SKC,0.00,WeatherDisplay:10.37,2013-01-10 22:38:00,
2013-01-10 15:43:00,64.4,24.7,31.89,North,0,13.9,13.9,22,0.00,CLR,SKC,0.00,WeatherDisplay:10.37,2013-01-10 22:43:00,
2013-01-10 15:48:00,64.6,24.8,31.90,NNW,338,17.3,17.3,22,0.00,CLR,SKC,0.00,WeatherDisplay:10.37,2013-01-10 22:48:00,
2013-01-10 15:53:00,64.6,24.8,31.89,North,0,13.6,14.9,22,0.00,CLR,SKC,0.00,WeatherDisplay:10.37,2013-01-10 22:53:00,
2013-01-10 15:58:00,64.4,25.8,31.89,NNE,22,20.7,20.7,23,0.00,CLR,SKC,0.00,WeatherDisplay:10.37,2013-01-10 22:58:00,
2013-01-10 16:03:00,64.2,25.6,31.90,NNE,22,15.0,15.0,23,0.00,CLR,SKC,0.00,WeatherDisplay:10.37,2013-01-10 23:03:00,
2013-01-10 16:08:00,64.0,25.5,31.89,North,0,20.7,20.7,23,0.00,CLR,SKC,0.00,WeatherDisplay:10.37,2013-01-10 23:08:00,
2013-01-10 16:13:00,63.7,25.1,31.89,NE,45,19.6,19.6,23,0.00,CLR,SKC,0.00,WeatherDisplay:10.37,2013-01-10 23:13:00,
2013-01-10 16:18:00,63.5,25.0,31.89,North,0,15.0,15.0,23,0.00,CLR,SKC,0.00,WeatherDisplay:10.37,2013-01-10 23:18:00,
2013-01-10 16:23:00,63.3,24.8,31.90,North,0,17.3,17.3,23,0.00,CLR,SKC,0.00,WeatherDisplay:10.37,2013-01-10 23:23:00,
2013-01-10 16:28:00,63.1,24.7,31.89,North,0,17.3,17.3,23,0.00,CLR,SKC,0.00,WeatherDisplay:10.37,2013-01-10 23:28:00,
2013-01-10 16:33:00,63.0,24.5,31.90,NNW,338,12.7,12.7,23,0.00,CLR,SKC,0.00,WeatherDisplay:10.37,2013-01-10 23:33:00,
2013-01-10 16:38:00,62.8,24.4,31.90,NNW,338,16.1,16.1,23,0.00,CLR,SKC,0.00,WeatherDisplay:10.37,2013-01-10 23:38:00,
2013-01-10 16:43:00,62.4,25.1,31.89,NNW,338,17.3,17.3,24,0.00,CLR,SKC,0.00,WeatherDisplay:10.37,2013-01-10 23:43:00,
2013-01-10 16:48:00,62.4,25.1,31.89,NNW,338,16.1,16.1,24,0.00,CLR,SKC,0.00,WeatherDisplay:10.37,2013-01-10 23:48:00,
2013-01-10 16:53:00,62.2,25.0,31.89,NNW,338,17.3,17.3,24,0.00,CLR,SKC,0.00,WeatherDisplay:10.37,2013-01-10 23:53:00,
2013-01-10 16:58:00,61.9,24.7,31.89,North,0,19.6,19.6,24,0.00,CLR,SKC,0.00,WeatherDisplay:10.37,2013-01-10 23:58:00,
2013-01-10 17:03:00,61.7,24.5,31.89,NNW,338,12.7,12.7,24,0.00,CLR,SKC,0.00,WeatherDisplay:10.37,2013-01-11 00:03:00,
2013-01-10 17:08:00,61.7,23.5,31.89,North,0,18.4,18.4,23,0.00,CLR,SKC,0.00,WeatherDisplay:10.37,2013-01-11 00:08:00,
2013-01-10 17:13:00,61.5,23.3,31.89,North,0,26.5,26.5,23,0.00,CLR,SKC,0.00,WeatherDisplay:10.37,2013-01-11 00:13:00,
2013-01-10 17:18:00,61.3,23.2,31.89,North,0,17.9,17.9,23,0.00,CLR,SKC,0.00,WeatherDisplay:10.37,2013-01-11 00:18:00,
2013-01-10 17:23:00,61.3,24.2,31.89,North,0,20.7,20.7,24,0.00,CLR,SKC,0.00,WeatherDisplay:10.37,2013-01-11 00:23:00,
2013-01-10 17:28:00,61.0,23.9,31.88,NNE,22,21.9,21.9,24,0.00,CLR,SKC,0.00,WeatherDisplay:10.37,2013-01-11 00:28:00,
2013-01-10 17:33:00,61.0,23.9,31.89,NE,45,19.6,19.6,24,0.00,CLR,SKC,0.00,WeatherDisplay:10.37,2013-01-11 00:33:00,
2013-01-10 17:38:00,60.6,23.6,31.89,North,0,19.6,19.6,24,0.00,CLR,SKC,0.00,WeatherDisplay:10.37,2013-01-11 00:38:00,
2013-01-10 17:43:00,60.4,23.4,31.89,North,0,19.6,19.6,24,0.00,CLR,SKC,0.00,WeatherDisplay:10.37,2013-01-11 00:43:00,
2013-01-10 17:48:00,60.3,23.3,31.88,NNE,22,16.1,16.1,24,0.00,CLR,SKC,0.00,WeatherDisplay:10.37,2013-01-11 00:48:00,
2013-01-10 17:53:00,60.1,23.1,31.88,North,0,18.4,18.4,24,0.00,CLR,SKC,0.00,WeatherDisplay:10.37,2013-01-11 00:53:00,
2013-01-10 17:58:00,59.9,23.9,31.88,NNE,22,18.4,18.4,25,0.00,CLR,SKC,0.00,WeatherDisplay:10.37,2013-01-11 00:58:00,
2013-01-10 18:03:00,59.9,23.9,31.89,NNW,338,25.3,25.3,25,0.00,CLR,SKC,0.00,WeatherDisplay:10.37,2013-01-11 01:03:00,
2013-01-10 18:08:00,59.7,23.8,31.89,NNE,22,20.7,20.7,25,0.00,CLR,SKC,0.00,WeatherDisplay:10.37,2013-01-11 01:08:00,
2013-01-10 18:13:00,59.5,23.6,31.88,NE,45,18.8,18.8,25,0.00,CLR,SKC,0.00,WeatherDisplay:10.37,2013-01-11 01:13:00,
2013-01-10 18:19:00,59.5,23.6,31.88,NNE,22,21.2,21.2,25,0.00,CLR,SKC,0.00,WeatherDisplay:10.37,2013-01-11 01:19:00,
2013-01-10 18:24:00,59.5,23.6,31.88,NNE,22,19.7,19.7,25,0.00,CLR,SKC,0.00,WeatherDisplay:10.37,2013-01-11 01:24:00,
2013-01-10 18:29:00,59.4,24.4,31.88,NNE,22,19.4,19.4,26,0.00,CLR,SKC,0.00,WeatherDisplay:10.37,2013-01-11 01:29:00,
2013-01-10 18:34:00,59.4,24.4,31.88,NW,315,25.3,25.3,26,0.00,CLR,SKC,0.00,WeatherDisplay:10.37,2013-01-11 01:34:00,
2013-01-10 18:39:00,59.2,24.3,31.88,North,0,26.5,26.5,26,0.00,,SKC,0.00,WeatherDisplay:10.37,2013-01-11 01:39:00,
2013-01-10 18:44:00,59.2,24.3,31.89,NNW,338,21.9,21.9,26,0.00,CLR,SKC,0.00,WeatherDisplay:10.37,2013-01-11 01:44:00,
2013-01-10 18:49:00,58.8,24.0,31.89,NNE,22,20.7,20.7,26,0.00,CLR,SKC,0.00,WeatherDisplay:10.37,2013-01-11 01:49:00,
2013-01-10 18:54:00,58.8,24.0,31.89,North,0,24.2,24.2,26,0.00,CLR,SKC,0.00,WeatherDisplay:10.37,2013-01-11 01:54:00,
2013-01-10 18:59:00,58.8,24.0,31.88,NNW,338,24.2,24.2,26,0.00,CLR,SKC,0.00,WeatherDisplay:10.37,2013-01-11 01:59:00,
2013-01-10 19:04:00,58.6,23.8,31.88,NNW,338,25.3,25.3,26,0.00,CLR,SKC,0.00,WeatherDisplay:10.37,2013-01-11 02:04:00,
2013-01-10 19:09:00,58.5,23.7,31.88,NNW,338,24.2,24.2,26,0.00,CLR,SKC,0.00,WeatherDisplay:10.37,2013-01-11 02:09:00,
2013-01-10 19:14:00,58.3,24.4,31.88,NNW,338,21.9,21.9,27,0.00,CLR,SKC,0.00,WeatherDisplay:10.37,2013-01-11 02:14:00,
2013-01-10 19:19:00,58.1,24.3,31.88,NNW,338,17.3,17.3,27,0.00,CLR,SKC,0.00,WeatherDisplay:10.37,2013-01-11 02:19:00,
2013-01-10 19:24:00,57.9,24.1,31.88,North,0,15.6,15.6,27,0.00,CLR,SKC,0.00,WeatherDisplay:10.37,2013-01-11 02:24:00,
2013-01-10 19:29:00,57.9,24.1,31.88,North,0,20.7,20.7,27,0.00,CLR,SKC,0.00,WeatherDisplay:10.37,2013-01-11 02:29:00,
2013-01-10 19:34:00,57.7,23.9,31.86,WNW,292,23.0,23.0,27,0.00,CLR,SKC,0.00,WeatherDisplay:10.37,2013-01-11 02:34:00,
2013-01-10 19:40:00,57.6,23.8,31.86,NNW,338,27.6,27.6,27,0.00,,SKC,0.00,WeatherDisplay:10.37,2013-01-11 02:40:00,
2013-01-10 19:45:00,57.4,23.6,31.85,NNW,332,22.0,30.0,27,0.00,,SKC,0.00,WeatherDisplay:10.37,2013-01-11 02:45:00,
2013-01-10 19:50:00,57.4,23.6,31.85,NNW,336,21.0,32.0,27,0.00,CLR,SKC,0.00,WeatherDisplay:10.37,2013-01-11 02:50:00,
2013-01-10 19:55:00,57.0,23.3,31.85,NNW,338,21.9,21.9,27,0.00,CLR,SKC,0.00,WeatherDisplay:10.37,2013-01-11 02:55:00,
2013-01-10 20:00:00,57.0,23.3,31.85,NNW,339,17.0,25.0,27,0.00,CLR,SKC,0.00,WeatherDisplay:10.37,2013-01-11 03:00:00,
2013-01-10 20:05:00,56.8,23.2,31.85,NNW,338,25.3,25.3,27,0.00,CLR,SKC,0.00,WeatherDisplay:10.37,2013-01-11 03:05:00,
2013-01-10 20:10:00,56.8,23.2,31.87,NNW,344,17.0,25.0,27,0.00,CLR,SKC,0.00,WeatherDisplay:10.37,2013-01-11 03:10:00,
2013-01-10 20:15:00,56.8,23.2,31.86,NNW,347,14.0,23.0,27,0.00,CLR,SKC,0.00,WeatherDisplay:10.37,2013-01-11 03:15:00,
2013-01-10 20:20:00,56.8,22.3,31.86,North,0,24.2,24.2,26,0.00,CLR,SKC,0.00,WeatherDisplay:10.37,2013-01-11 03:20:00,
2013-01-10 20:25:00,56.8,22.3,31.85,North,353,16.0,30.0,26,0.00,CLR,SKC,0.00,WeatherDisplay:10.37,2013-01-11 03:25:00,
2013-01-10 20:30:00,56.8,22.3,31.86,North,357,18.0,29.0,26,0.00,,SKC,0.00,WeatherDisplay:10.37,2013-01-11 03:30:00,
2013-01-10 20:35:00,56.8,22.3,31.86,North,0,21.0,28.0,26,0.00,CLR,SKC,0.00,WeatherDisplay:10.37,2013-01-11 03:35:00,
2013-01-10 20:40:00,56.8,22.3,31.86,North,0,25.3,25.3,26,0.00,CLR,SKC,0.00,WeatherDisplay:10.37,2013-01-11 03:40:00,
2013-01-10 20:45:00,57.0,22.4,31.86,North,360,20.0,29.0,26,0.00,CLR,SKC,0.00,WeatherDisplay:10.37,2013-01-11 03:45:00,
2013-01-10 20:50:00,57.0,22.4,31.86,NNW,338,25.3,25.3,26,0.00,CLR,SKC,0.00,WeatherDisplay:10.37,2013-01-11 03:50:00,
2013-01-10 20:55:00,57.0,22.4,31.86,North,357,18.0,27.0,26,0.00,CLR,SKC,0.00,WeatherDisplay:10.37,2013-01-11 03:55:00,
2013-01-10 21:00:00,56.8,22.3,31.86,North,352,17.0,24.0,26,0.00,CLR,SKC,0.00,WeatherDisplay:10.37,2013-01-11 04:00:00,
2013-01-10 21:05:00,56.8,22.3,31.86,NNW,338,21.9,21.9,26,0.00,CLR,SKC,0.00,WeatherDisplay:10.37,2013-01-11 04:05:00,
2013-01-10 21:10:00,56.5,22.0,31.87,NNW,338,20.7,20.7,26,0.00,CLR,SKC,0.00,WeatherDisplay:10.37,2013-01-11 04:10:00,
2013-01-10 21:15:00,56.3,21.8,31.86,North,0,23.0,23.0,26,0.00,CLR,SKC,0.00,WeatherDisplay:10.37,2013-01-11 04:15:00,
2013-01-10 21:20:00,56.1,21.7,31.86,North,0,20.3,20.3,26,0.00,CLR,SKC,0.00,WeatherDisplay:10.37,2013-01-11 04:20:00,
2013-01-10 21:25:00,55.9,21.5,31.85,NNW,343,20.0,28.0,26,0.00,CLR,SKC,0.00,WeatherDisplay:10.37,2013-01-11 04:25:00,
2013-01-10 21:30:00,55.9,21.5,31.86,NNW,338,24.2,24.2,26,0.00,CLR,SKC,0.00,WeatherDisplay:10.37,2013-01-11 04:30:00,
2013-01-10 21:35:00,55.7,21.3,31.85,NNW,345,16.0,23.0,26,0.00,CLR,SKC,0.00,WeatherDisplay:10.37,2013-01-11 04:35:00,
2013-01-10 21:40:00,55.5,21.1,31.85,NNW,344,18.0,25.0,26,0.00,CLR,SKC,0.00,WeatherDisplay:10.37,2013-01-11 04:40:00,
2013-01-10 21:45:00,55.2,20.9,31.85,NNW,340,21.0,23.0,26,0.00,CLR,SKC,0.00,WeatherDisplay:10.37,2013-01-11 04:45:00,
2013-01-10 21:50:00,55.2,20.9,31.85,NNW,338,24.2,24.2,26,0.00,CLR,SKC,0.00,WeatherDisplay:10.37,2013-01-11 04:50:00,
2013-01-10 21:55:00,55.2,20.9,31.85,North,0,24.2,24.2,26,0.00,CLR,SKC,0.00,WeatherDisplay:10.37,2013-01-11 04:55:00,
2013-01-10 22:01:00,55.2,20.9,31.86,North,0,17.3,17.3,26,0.00,CLR,SKC,0.00,WeatherDisplay:10.37,2013-01-11 05:01:00,
2013-01-10 22:03:00,55.2,20.9,31.86,North,0,21.9,21.9,26,0.00,CLR,SKC,0.00,WeatherDisplay:10.37,2013-01-11 05:03:00,
2013-01-10 22:08:00,55.0,20.7,31.86,NNW,338,21.9,21.9,26,0.00,CLR,SKC,0.00,WeatherDisplay:10.37,2013-01-11 05:08:00,
2013-01-10 22:13:00,55.2,20.9,31.86,NNE,22,21.9,21.9,26,0.00,CLR,SKC,0.00,WeatherDisplay:10.37,2013-01-11 05:13:00,
2013-01-10 22:18:00,55.0,20.7,31.87,NNE,22,16.1,16.1,26,0.00,CLR,SKC,0.00,WeatherDisplay:10.37,2013-01-11 05:18:00,
2013-01-10 22:23:00,55.0,20.7,31.87,North,0,11.5,11.5,26,0.00,CLR,SKC,0.00,WeatherDisplay:10.37,2013-01-11 05:23:00,
2013-01-10 22:28:00,55.0,20.7,31.87,North,0,25.3,25.3,26,0.00,CLR,SKC,0.00,WeatherDisplay:10.37,2013-01-11 05:28:00,
2013-01-10 22:33:00,55.0,20.7,31.87,NNW,338,12.1,12.1,26,0.00,CLR,SKC,0.00,WeatherDisplay:10.37,2013-01-11 05:33:00,
2013-01-10 22:38:00,54.9,20.6,31.86,North,0,17.3,17.3,26,0.00,CLR,SKC,0.00,WeatherDisplay:10.37,2013-01-11 05:38:00,
2013-01-10 22:43:00,54.7,20.4,31.87,NNE,22,20.7,20.7,26,0.00,CLR,SKC,0.00,WeatherDisplay:10.37,2013-01-11 05:43:00,
2013-01-10 22:48:00,54.7,20.4,31.87,NW,315,13.8,13.8,26,0.00,CLR,SKC,0.00,WeatherDisplay:10.37,2013-01-11 05:48:00,
2013-01-10 22:53:00,54.5,20.3,31.87,NNW,338,15.2,15.2,26,0.00,CLR,SKC,0.00,WeatherDisplay:10.37,2013-01-11 05:53:00,
2013-01-10 22:58:00,54.5,20.3,31.86,NNW,338,16.1,16.1,26,0.00,CLR,SKC,0.00,WeatherDisplay:10.37,2013-01-11 05:58:00,
2013-01-10 23:03:00,54.3,20.1,31.86,NNW,338,17.0,17.0,26,0.00,CLR,SKC,0.00,WeatherDisplay:10.37,2013-01-11 06:03:00,
2013-01-10 23:08:00,54.3,20.1,31.87,NW,315,13.8,13.8,26,0.00,CLR,SKC,0.00,WeatherDisplay:10.37,2013-01-11 06:08:00,
2013-01-10 23:13:00,54.3,20.1,31.86,NW,315,18.4,18.4,26,0.00,CLR,SKC,0.00,WeatherDisplay:10.37,2013-01-11 06:13:00,
2013-01-10 23:18:00,54.3,20.1,31.86,NNW,338,13.8,13.8,26,0.00,CLR,SKC,0.00,WeatherDisplay:10.37,2013-01-11 06:18:00,
2013-01-10 23:23:00,54.3,20.1,31.87,NNW,338,11.5,11.5,26,0.00,CLR,SKC,0.00,WeatherDisplay:10.37,2013-01-11 06:23:00,
2013-01-10 23:28:00,54.1,20.8,31.87,North,0,13.8,13.8,27,0.00,CLR,SKC,0.00,WeatherDisplay:10.37,2013-01-11 06:28:00,
2013-01-10 23:33:00,54.1,20.8,31.87,NNW,338,12.7,12.7,27,0.00,CLR,SKC,0.00,WeatherDisplay:10.37,2013-01-11 06:33:00,
2013-01-10 23:38:00,54.1,20.8,31.87,NNW,338,11.5,11.5,27,0.00,CLR,SKC,0.00,WeatherDisplay:10.37,2013-01-11 06:38:00,
2013-01-10 23:43:00,54.1,20.8,31.87,North,0,12.7,12.7,27,0.00,CLR,SKC,0.00,WeatherDisplay:10.37,2013-01-11 06:43:00,
2013-01-10 23:48:00,54.0,20.7,31.88,North,0,14.7,14.7,27,0.00,CLR,SKC,0.00,WeatherDisplay:10.37,2013-01-11 06:48:00,
2013-01-10 23:53:00,54.0,20.7,31.87,NNW,338,13.8,13.8,27,0.00,CLR,SKC,0.00,WeatherDisplay:10.37,2013-01-11 06:53:00,
2013-01-10 23:58:00,53.8,21.4,31.88,NNW,338,13.8,13.8,28,0.00,CLR,SKC,0.00,WeatherDisplay:10.37,2013-01-11 06:58:00,